Time;durP1;ratioP1;P1;durP2;ratioP2;P2;SDS_P1;SDS_P2;PMS_P1;PMS_P2;Temp;Humidity;BMP_temperature;BMP_pressure;BME280_temperature;BME280_humidity;BME280_pressure;Samples;Min_cycle;Max_cycle;Signal;HPM_P1;HPM_P2
2021/01/18 08:49:09;;;;;;;8.47;1.93;;;5.30;99.90;;;;;;3359443;26;20248;-79
2021/01/18 08:51:44;;;;;;;8.40;2.23;;;5.30;99.90;;;;;;5033960;28;20209;-76
2021/01/18 08:54:11;;;;;;;3.00;1.53;;;5.30;99.90;;;;;;5033951;28;20231;-77
2021/01/18 08:56:39;;;;;;;10.70;1.70;;;5.40;99.90;;;;;;5034067;28;20233;-74
2021/01/18 08:59:14;;;;;;;2.93;1.67;;;5.60;99.90;;;;;;5032122;28;20216;-80
2021/01/18 09:01:40;;;;;;;4.37;1.80;;;5.80;99.90;;;;;;5030250;28;20201;-75
2021/01/18 09:04:07;;;;;;;5.57;1.40;;;5.80;99.90;;;;;;5032637;28;20718;-76
2021/01/18 09:06:34;;;;;;;7.20;1.60;;;5.80;99.90;;;;;;5033371;28;20212;-76
2021/01/18 09:09:02;;;;;;;11.33;1.97;;;5.90;99.90;;;;;;5033060;28;20241;-76
2021/01/18 09:11:29;;;;;;;3.97;1.50;;;6.00;99.90;;;;;;5033179;28;20213;-76
2021/01/18 09:13:55;;;;;;;5.80;2.60;;;6.10;99.90;;;;;;5032772;28;20603;-76
2021/01/18 09:16:21;;;;;;;4.47;1.33;;;6.30;99.90;;;;;;5033156;28;20236;-76
2021/01/18 09:18:48;;;;;;;7.80;1.87;;;6.40;99.90;;;;;;5033279;28;20213;-76
2021/01/18 09:21:17;;;;;;;6.23;1.40;;;6.40;99.90;;;;;;5032421;28;20205;-76
2021/01/18 09:23:44;;;;;;;4.30;1.40;;;6.50;99.90;;;;;;5032528;28;20563;-77
2021/01/18 09:26:12;;;;;;;3.63;1.03;;;6.70;99.90;;;;;;5032621;28;20212;-76
2021/01/18 09:28:38;;;;;;;4.87;1.50;;;6.70;99.90;;;;;;5032976;28;20274;-77
2021/01/18 09:31:12;;;;;;;6.07;1.93;;;6.80;99.90;;;;;;5032716;28;20209;-76
2021/01/18 09:33:40;;;;;;;3.90;1.40;;;6.60;99.90;;;;;;5032353;28;20307;-76
2021/01/18 09:36:11;;;;;;;3.27;1.53;;;6.60;99.90;;;;;;5032979;28;20228;-77
2021/01/18 09:38:39;;;;;;;7.30;1.67;;;6.60;99.90;;;;;;5032666;28;20204;-76
2021/01/18 09:41:05;;;;;;;8.57;1.47;;;6.70;99.90;;;;;;5032316;28;20207;-76
2021/01/18 09:43:33;;;;;;;5.37;1.67;;;6.60;99.90;;;;;;5032327;28;20730;-76
2021/01/18 09:46:01;;;;;;;6.23;1.77;;;6.70;99.90;;;;;;5032513;28;20232;-76
2021/01/18 09:48:27;;;;;;;8.20;1.50;;;6.50;99.90;;;;;;5032408;28;20219;-77
2021/01/18 09:51:02;;;;;;;5.90;1.47;;;6.60;99.90;;;;;;5032369;28;20215;-77
2021/01/18 09:53:29;;;;;;;4.93;1.90;;;6.70;99.90;;;;;;5031974;28;20224;-76
2021/01/18 09:56:00;;;;;;;5.90;1.70;;;6.80;99.90;;;;;;5032570;28;20236;-76
2021/01/18 09:58:34;;;;;;;5.13;1.50;;;6.90;99.90;;;;;;5032427;28;20204;-76
2021/01/18 10:01:02;;;;;;;5.80;1.43;;;6.90;99.90;;;;;;5032069;28;20659;-76
2021/01/18 10:03:32;;;;;;;5.03;1.37;;;6.90;99.90;;;;;;5032083;28;20252;-76
2021/01/18 10:06:07;;;;;;;2.37;1.30;;;7.00;99.90;;;;;;5032770;28;20209;-76
2021/01/18 10:08:35;;;;;;;4.50;1.40;;;7.10;99.90;;;;;;5032360;28;20204;-76
2021/01/18 10:11:02;;;;;;;5.20;1.50;;;7.20;99.90;;;;;;5032276;28;20205;-76
2021/01/18 10:13:29;;;;;;;6.53;1.23;;;7.10;99.90;;;;;;5032266;28;20228;-76
2021/01/18 10:16:05;;;;;;;5.80;1.60;;;7.10;99.90;;;;;;5032597;28;20236;-76
2021/01/18 10:18:32;;;;;;;3.90;1.20;;;7.20;99.90;;;;;;5032256;28;20213;-77
2021/01/18 10:20:59;;;;;;;4.43;1.90;;;7.30;99.90;;;;;;5032494;28;20204;-76
2021/01/18 10:23:30;;;;;;;6.00;1.40;;;7.30;99.90;;;;;;5032018;28;20229;-76
2021/01/18 10:26:13;;;;;;;5.40;1.47;;;7.30;99.90;;;;;;5032217;28;20667;-76
2021/01/18 10:28:47;;;;;;;4.93;1.00;;;7.40;99.90;;;;;;5032036;28;20667;-76
2021/01/18 10:31:17;;;;;;;4.13;1.40;;;7.40;99.90;;;;;;5031738;28;20212;-76
2021/01/18 10:33:44;;;;;;;3.73;1.60;;;7.50;99.90;;;;;;5031997;28;20228;-77
2021/01/18 10:36:10;;;;;;;5.03;1.43;;;7.70;99.90;;;;;;5032384;28;20576;-77
2021/01/18 10:38:38;;;;;;;5.47;1.57;;;7.80;99.90;;;;;;5035998;28;20216;-76
2021/01/18 10:41:06;;;;;;;5.60;1.40;;;7.70;99.90;;;;;;5036438;28;20212;-76
2021/01/18 10:43:33;;;;;;;6.20;1.27;;;7.70;99.90;;;;;;5035823;28;20706;-76
2021/01/18 10:46:01;;;;;;;7.80;2.07;;;7.90;99.90;;;;;;5035867;28;20247;-76
2021/01/18 10:48:29;;;;;;;6.43;1.40;;;7.80;99.90;;;;;;5035570;28;20216;-76
2021/01/18 10:50:57;;;;;;;2.73;1.10;;;7.80;99.90;;;;;;5035538;28;20205;-76
2021/01/18 10:53:28;;;;;;;3.00;1.23;;;7.90;99.90;;;;;;5035295;28;20232;-76
2021/01/18 10:56:10;;;;;;;3.93;1.33;;;8.00;99.90;;;;;;5035803;28;20225;-76
2021/01/18 10:58:36;;;;;;;4.17;1.70;;;7.90;99.90;;;;;;5035730;28;20571;-77
2021/01/18 11:01:08;;;;;;;3.23;1.50;;;7.90;99.90;;;;;;5035073;28;20263;-76
2021/01/18 11:03:36;;;;;;;4.83;1.40;;;7.80;99.90;;;;;;5035367;28;20228;-76
2021/01/18 11:06:13;;;;;;;6.83;1.67;;;7.70;99.90;;;;;;5035673;28;20217;-76
2021/01/18 11:08:39;;;;;;;7.37;1.73;;;7.70;99.90;;;;;;5035336;28;20215;-76
2021/01/18 11:11:17;;;;;;;5.93;1.53;;;7.90;99.90;;;;;;5035222;28;20197;-76
2021/01/18 11:13:44;;;;;;;11.10;2.30;;;7.90;99.90;;;;;;5035264;28;20578;-76
2021/01/18 11:16:13;;;;;;;4.97;1.70;;;8.20;99.90;;;;;;5034973;28;20626;-76
2021/01/18 11:18:39;;;;;;;4.93;1.40;;;8.30;99.90;;;;;;5035516;28;20204;-76
2021/01/18 11:21:06;;;;;;;3.07;1.63;;;8.30;99.90;;;;;;5035648;28;20213;-76
2021/01/18 11:23:33;;;;;;;5.37;1.50;;;8.30;99.90;;;;;;5034577;28;20240;-76
2021/01/18 11:25:59;;;;;;;4.33;1.47;;;8.50;99.90;;;;;;5035487;28;20209;-76
2021/01/18 11:28:26;;;;;;;5.20;1.67;;;8.30;99.90;;;;;;5035276;28;20212;-76
2021/01/18 11:30:52;;;;;;;3.23;1.40;;;8.20;99.90;;;;;;5034993;28;20216;-76
2021/01/18 11:33:20;;;;;;;3.47;1.20;;;8.10;99.90;;;;;;5034840;28;20235;-76
2021/01/18 11:35:48;;;;;;;6.37;1.67;;;8.00;99.90;;;;;;5035326;28;20233;-76
2021/01/18 11:38:15;;;;;;;5.20;1.53;;;8.10;99.90;;;;;;5035515;28;20205;-76
2021/01/18 11:40:42;;;;;;;6.63;1.47;;;8.10;99.90;;;;;;5035451;28;20205;-75
2021/01/18 11:43:09;;;;;;;3.33;1.33;;;8.10;99.90;;;;;;5035355;28;20225;-75
2021/01/18 11:45:36;;;;;;;3.47;1.23;;;8.20;99.90;;;;;;5035938;28;20564;-78
2021/01/18 11:48:03;;;;;;;4.73;1.40;;;8.40;99.90;;;;;;5035453;28;20212;-76
2021/01/18 11:50:32;;;;;;;5.27;1.80;;;8.40;99.90;;;;;;5035757;28;20347;-77
2021/01/18 11:52:59;;;;;;;7.60;1.93;;;8.50;99.90;;;;;;5035436;28;20725;-76
2021/01/18 11:55:25;;;;;;;4.77;2.13;;;8.50;99.90;;;;;;5034758;28;20671;-76
2021/01/18 11:57:52;;;;;;;4.07;1.53;;;8.40;99.90;;;;;;5034237;28;20243;-74
2021/01/18 12:00:21;;;;;;;4.03;1.17;;;8.20;99.90;;;;;;5034336;28;20598;-75
2021/01/18 12:02:47;;;;;;;4.13;1.70;;;8.10;99.90;;;;;;5032680;28;20387;-74
2021/01/18 12:05:14;;;;;;;7.17;1.70;;;8.10;99.90;;;;;;5032718;28;20212;-75
2021/01/18 12:07:44;;;;;;;5.20;1.57;;;8.00;99.90;;;;;;5034301;28;20694;-75
2021/01/18 12:10:12;;;;;;;6.13;1.70;;;8.00;99.90;;;;;;5034459;28;20258;-75
2021/01/18 12:12:38;;;;;;;4.27;1.70;;;8.00;99.90;;;;;;5034734;28;20560;-75
2021/01/18 12:15:06;;;;;;;3.10;1.40;;;8.00;99.90;;;;;;5034506;28;20789;-74
2021/01/18 12:17:36;;;;;;;7.70;1.80;;;7.90;99.90;;;;;;5034544;28;20236;-75
2021/01/18 12:20:03;;;;;;;5.00;1.67;;;7.90;99.90;;;;;;5034613;28;20205;-75
2021/01/18 12:22:30;;;;;;;3.50;1.50;;;8.00;99.90;;;;;;5034464;28;20209;-75
2021/01/18 12:24:57;;;;;;;6.40;1.57;;;8.10;99.90;;;;;;5034884;28;20208;-75
2021/01/18 12:27:23;;;;;;;5.30;1.43;;;8.20;99.90;;;;;;5034720;28;20205;-75
2021/01/18 12:29:49;;;;;;;4.70;1.93;;;8.20;99.90;;;;;;5034249;28;20255;-75
2021/01/18 12:32:16;;;;;;;6.07;1.33;;;8.10;99.90;;;;;;5034209;28;20291;-75
2021/01/18 12:34:42;;;;;;;3.63;1.13;;;8.20;99.90;;;;;;5034136;28;20216;-75
2021/01/18 12:37:09;;;;;;;4.43;1.10;;;8.40;99.90;;;;;;5034042;28;20283;-75
2021/01/18 12:39:35;;;;;;;4.90;1.63;;;8.40;99.90;;;;;;5034271;28;20211;-75
2021/01/18 12:42:03;;;;;;;8.43;1.67;;;8.30;99.90;;;;;;5034370;28;20208;-75
2021/01/18 12:44:29;;;;;;;2.97;1.17;;;8.30;99.90;;;;;;5034178;28;20224;-75
2021/01/18 12:46:58;;;;;;;3.50;1.57;;;8.10;99.90;;;;;;5033778;28;20208;-75
2021/01/18 12:49:24;;;;;;;2.50;1.30;;;8.10;99.90;;;;;;5033491;28;20213;-74
2021/01/18 12:51:51;;;;;;;5.23;1.60;;;8.20;99.90;;;;;;5033753;28;20559;-75
2021/01/18 12:54:17;;;;;;;2.20;1.40;;;8.20;99.90;;;;;;5034094;28;20233;-74
2021/01/18 12:56:43;;;;;;;4.47;1.30;;;8.30;99.90;;;;;;5034255;28;20239;-74
2021/01/18 12:59:10;;;;;;;5.00;1.43;;;8.30;99.90;;;;;;5033242;28;20667;-75
2021/01/18 13:01:36;;;;;;;6.57;1.40;;;8.30;99.90;;;;;;5033816;28;20212;-75
2021/01/18 13:04:04;;;;;;;3.00;1.20;;;8.30;99.90;;;;;;5033626;28;20231;-75
2021/01/18 13:06:37;;;;;;;5.20;1.60;;;8.20;99.90;;;;;;5033895;28;20208;-75
2021/01/18 13:09:04;;;;;;;4.97;1.43;;;8.20;99.90;;;;;;5033356;28;20339;-76
2021/01/18 13:11:30;;;;;;;3.63;1.20;;;8.50;99.90;;;;;;5031748;28;20208;-77
2021/01/18 13:13:56;;;;;;;2.80;1.57;;;8.50;99.90;;;;;;5032829;28;20248;-76
2021/01/18 13:16:24;;;;;;;4.17;1.50;;;8.60;99.90;;;;;;5033241;28;20233;-76
2021/01/18 13:18:50;;;;;;;2.10;1.43;;;8.60;99.90;;;;;;5032617;28;20209;-77
2021/01/18 13:21:17;;;;;;;5.70;1.27;;;8.70;99.90;;;;;;5032786;28;20216;-78
2021/01/18 13:23:44;;;;;;;3.00;1.63;;;8.70;99.90;;;;;;5032744;28;20233;-76
2021/01/18 13:26:11;;;;;;;5.57;1.43;;;8.70;99.90;;;;;;5032443;28;20568;-77
2021/01/18 13:28:40;;;;;;;3.17;1.63;;;8.80;99.90;;;;;;5032643;28;20204;-78
2021/01/18 13:31:06;;;;;;;8.33;1.80;;;8.70;99.90;;;;;;5032547;28;20541;-77
2021/01/18 13:33:33;;;;;;;2.90;1.30;;;8.60;99.90;;;;;;5028098;28;20228;-71
2021/01/18 13:35:59;;;;;;;3.70;1.53;;;8.40;99.90;;;;;;5031120;28;20259;-72
2021/01/18 13:38:26;;;;;;;2.90;1.50;;;8.50;99.90;;;;;;5031519;28;20209;-73
2021/01/18 13:40:52;;;;;;;4.90;1.57;;;8.50;99.90;;;;;;5030358;28;20591;-72
2021/01/18 13:43:18;;;;;;;3.87;1.77;;;8.50;99.90;;;;;;5031047;28;20228;-72
2021/01/18 13:45:45;;;;;;;5.40;2.07;;;8.40;99.90;;;;;;5031550;28;20212;-73
2021/01/18 13:48:11;;;;;;;6.17;1.60;;;8.50;99.90;;;;;;5030788;28;20281;-74
2021/01/18 13:50:38;;;;;;;2.87;1.50;;;8.50;99.90;;;;;;5031625;28;20224;-74
2021/01/18 13:53:05;;;;;;;6.03;1.70;;;8.40;99.90;;;;;;5031691;28;20224;-75
2021/01/18 13:55:31;;;;;;;3.70;1.70;;;8.40;99.90;;;;;;5030402;28;20660;-74
2021/01/18 13:57:57;;;;;;;5.43;1.77;;;8.40;99.90;;;;;;5030803;28;20232;-75
2021/01/18 14:00:24;;;;;;;4.20;1.60;;;8.40;99.90;;;;;;5031489;28;20205;-72
2021/01/18 14:02:53;;;;;;;5.60;2.03;;;8.40;99.90;;;;;;5028056;28;20224;-73
2021/01/18 14:05:19;;;;;;;4.93;1.70;;;8.40;99.90;;;;;;5031146;28;20208;-74
2021/01/18 14:07:46;;;;;;;5.97;2.20;;;8.30;99.90;;;;;;5030798;28;20212;-73
2021/01/18 14:10:13;;;;;;;5.47;2.30;;;8.20;99.90;;;;;;5031847;28;20664;-71
2021/01/18 14:12:40;;;;;;;3.90;2.00;;;8.10;99.90;;;;;;5034805;28;20229;-74
2021/01/18 14:15:07;;;;;;;6.60;2.20;;;8.10;99.90;;;;;;5035361;28;20209;-73
2021/01/18 14:17:33;;;;;;;14.50;2.13;;;8.00;99.90;;;;;;5035122;28;20244;-71
2021/01/18 14:20:00;;;;;;;6.00;1.77;;;8.10;99.90;;;;;;5026119;28;20200;-72
2021/01/18 14:22:26;;;;;;;5.90;1.77;;;8.10;99.90;;;;;;5027242;28;20212;-72
2021/01/18 14:24:53;;;;;;;5.03;2.10;;;8.20;99.90;;;;;;5026534;28;20205;-71
2021/01/18 14:27:19;;;;;;;5.23;2.10;;;8.10;99.90;;;;;;5023139;28;20270;-72
2021/01/18 14:29:46;;;;;;;6.03;2.10;;;8.10;99.90;;;;;;5028683;28;20201;-73
2021/01/18 14:32:12;;;;;;;3.37;2.03;;;7.90;99.90;;;;;;5026082;28;20201;-74
2021/01/18 14:34:38;;;;;;;2.97;1.87;;;7.90;99.90;;;;;;5027655;28;20216;-71
2021/01/18 14:37:04;;;;;;;4.87;2.10;;;7.90;99.90;;;;;;5026157;28;20235;-73
2021/01/18 14:39:32;;;;;;;5.93;2.10;;;7.90;99.90;;;;;;5033813;28;20212;-74
2021/01/18 14:41:59;;;;;;;5.03;2.53;;;7.80;99.90;;;;;;5028001;28;20208;-73
2021/01/18 14:44:26;;;;;;;5.53;2.00;;;7.50;99.90;;;;;;5062824;22;20244;-77
2021/01/18 14:46:52;;;;;;;6.17;2.40;;;7.50;99.90;;;;;;5053262;28;20207;-78
2021/01/18 14:49:18;;;;;;;4.07;2.13;;;7.50;99.90;;;;;;5055374;28;20258;-74
2021/01/18 14:51:44;;;;;;;3.53;2.03;;;7.50;99.90;;;;;;5055489;28;20200;-70
2021/01/18 14:54:13;;;;;;;5.13;2.63;;;7.60;99.90;;;;;;5054951;28;20220;-70
2021/01/18 14:56:39;;;;;;;5.87;2.20;;;7.60;99.90;;;;;;5055049;28;20232;-73
2021/01/18 14:59:07;;;;;;;5.43;2.87;;;7.60;99.90;;;;;;5053743;28;20200;-70
2021/01/18 15:01:39;;;;;;;5.60;2.90;;;7.60;99.90;;;;;;5055124;28;20204;-72
2021/01/18 15:04:05;;;;;;;9.87;3.10;;;7.40;99.90;;;;;;5052554;28;20263;-74
2021/01/18 15:06:33;;;;;;;9.27;2.87;;;7.40;99.90;;;;;;5054481;28;20651;-75
2021/01/18 15:09:00;;;;;;;7.10;2.97;;;7.30;99.90;;;;;;5054530;28;20543;-73
2021/01/18 15:11:27;;;;;;;9.33;3.03;;;7.30;99.90;;;;;;5055034;28;20595;-75
2021/01/18 15:13:55;;;;;;;7.17;2.77;;;7.30;99.90;;;;;;5054414;28;20219;-74
2021/01/18 15:16:22;;;;;;;7.67;2.57;;;7.30;99.90;;;;;;5051800;28;20212;-73
2021/01/18 15:18:48;;;;;;;7.17;2.50;;;7.30;99.90;;;;;;5054601;28;20589;-76
2021/01/18 15:21:15;;;;;;;4.77;2.17;;;7.40;99.90;;;;;;5054438;28;20243;-74
2021/01/18 15:23:41;;;;;;;5.03;2.57;;;7.30;99.90;;;;;;5050210;28;20285;-76
2021/01/18 15:26:08;;;;;;;6.07;2.97;;;7.30;99.90;;;;;;5042214;28;20216;-75
2021/01/18 15:28:34;;;;;;;6.37;2.60;;;7.20;99.90;;;;;;5035351;28;20208;-77
2021/01/18 15:31:00;;;;;;;6.13;3.00;;;7.30;99.90;;;;;;5035515;28;20228;-74
2021/01/18 15:33:27;;;;;;;11.43;2.80;;;7.30;99.90;;;;;;5035223;28;20221;-71
2021/01/18 15:35:54;;;;;;;4.73;3.10;;;7.30;99.90;;;;;;5035263;28;20212;-72
2021/01/18 15:38:22;;;;;;;6.53;3.20;;;7.30;99.90;;;;;;5035205;28;20201;-70
2021/01/18 15:40:49;;;;;;;6.53;3.20;;;7.20;99.90;;;;;;5035023;28;20575;-71
2021/01/18 15:43:15;;;;;;;5.80;2.70;;;7.10;99.90;;;;;;5034606;28;20236;-71
2021/01/18 15:45:42;;;;;;;5.43;2.43;;;7.10;99.90;;;;;;5034605;28;20212;-69
2021/01/18 15:48:09;;;;;;;6.93;2.70;;;7.10;99.90;;;;;;5034847;28;20213;-69
2021/01/18 15:50:36;;;;;;;6.10;2.70;;;7.10;99.90;;;;;;5034836;28;20205;-70
2021/01/18 15:53:02;;;;;;;7.20;3.00;;;7.00;99.90;;;;;;5034462;28;20638;-70
2021/01/18 15:55:28;;;;;;;8.73;3.10;;;7.10;99.90;;;;;;5035136;28;20205;-72
2021/01/18 15:57:54;;;;;;;10.13;3.10;;;7.10;99.90;;;;;;5034799;28;20606;-70
2021/01/18 16:00:21;;;;;;;6.00;3.00;;;7.00;99.90;;;;;;5034619;28;20209;-69
2021/01/18 16:02:48;;;;;;;9.07;3.17;;;7.10;99.90;;;;;;5034398;28;20232;-69
2021/01/18 16:05:15;;;;;;;6.63;3.10;;;7.00;99.90;;;;;;5034343;28;20236;-70
2021/01/18 16:07:44;;;;;;;5.53;2.77;;;6.90;99.90;;;;;;5034746;28;20209;-71
2021/01/18 16:10:13;;;;;;;7.10;3.47;;;7.00;99.90;;;;;;5034518;28;20208;-77
2021/01/18 16:12:40;;;;;;;8.73;3.20;;;6.90;99.90;;;;;;5034367;28;20229;-69
2021/01/18 16:15:08;;;;;;;5.43;3.00;;;7.00;99.90;;;;;;5034218;28;20212;-71
2021/01/18 16:17:34;;;;;;;7.60;3.63;;;7.00;99.90;;;;;;5033657;28;20240;-71
2021/01/18 16:20:00;;;;;;;9.23;3.60;;;7.00;99.90;;;;;;5034381;28;20213;-71
2021/01/18 16:22:26;;;;;;;6.77;3.33;;;6.90;99.90;;;;;;5034150;28;20240;-72
2021/01/18 16:24:53;;;;;;;8.67;3.80;;;6.90;99.90;;;;;;5033959;28;20208;-71
2021/01/18 16:27:20;;;;;;;6.47;3.60;;;6.80;99.90;;;;;;5034497;28;20613;-70
2021/01/18 16:29:46;;;;;;;7.00;3.27;;;6.80;99.90;;;;;;5034272;28;20213;-69
2021/01/18 16:32:12;;;;;;;10.37;3.57;;;6.80;99.90;;;;;;5033402;28;20201;-75
2021/01/18 16:34:41;;;;;;;7.60;3.23;;;6.70;99.90;;;;;;5033132;28;20229;-70
2021/01/18 16:37:08;;;;;;;11.07;3.73;;;6.80;99.90;;;;;;5034329;28;20229;-71
2021/01/18 16:39:35;;;;;;;8.40;3.47;;;6.90;99.90;;;;;;5033998;28;20213;-70
2021/01/18 16:42:03;;;;;;;7.33;3.43;;;6.90;99.90;;;;;;5033402;28;20671;-70
2021/01/18 16:44:30;;;;;;;10.77;3.53;;;6.90;99.90;;;;;;5033513;28;20595;-71
2021/01/18 16:47:00;;;;;;;7.50;3.60;;;6.80;99.90;;;;;;5032474;28;20227;-71
2021/01/18 16:49:27;;;;;;;16.30;6.17;;;6.90;99.90;;;;;;5031443;28;20491;-70
2021/01/18 16:51:53;;;;;;;8.80;4.20;;;6.90;99.90;;;;;;5033524;28;20209;-71
2021/01/18 16:54:20;;;;;;;8.97;3.90;;;6.90;99.90;;;;;;5033647;28;20229;-70
2021/01/18 16:56:46;;;;;;;6.33;3.60;;;7.00;99.90;;;;;;5033389;28;20243;-73
2021/01/18 16:59:13;;;;;;;8.87;3.50;;;7.00;99.90;;;;;;5033476;28;20207;-70
2021/01/18 17:01:39;;;;;;;7.13;3.47;;;7.00;99.90;;;;;;5033613;28;20295;-71
2021/01/18 17:04:06;;;;;;;9.43;3.83;;;7.00;99.90;;;;;;5033285;28;20671;-71
2021/01/18 17:06:32;;;;;;;6.07;3.53;;;6.90;99.90;;;;;;5033292;28;20220;-70
2021/01/18 17:08:58;;;;;;;5.93;3.47;;;6.90;99.90;;;;;;5033405;28;20216;-71
2021/01/18 17:11:24;;;;;;;7.70;3.13;;;6.90;99.90;;;;;;5033310;28;20208;-71
2021/01/18 17:13:51;;;;;;;7.97;3.30;;;7.00;99.90;;;;;;5032651;28;20236;-71
2021/01/18 17:16:18;;;;;;;6.30;3.10;;;7.00;99.90;;;;;;5033402;28;20208;-74
2021/01/18 17:18:44;;;;;;;6.43;3.13;;;7.00;99.90;;;;;;5033497;28;20205;-74
2021/01/18 17:21:11;;;;;;;6.27;3.03;;;6.90;99.90;;;;;;5033177;28;20205;-73
2021/01/18 17:23:39;;;;;;;4.87;3.03;;;6.90;99.90;;;;;;5033059;28;20282;-73
2021/01/18 17:26:05;;;;;;;6.90;2.80;;;6.90;99.90;;;;;;5033312;28;20212;-72
2021/01/18 17:28:31;;;;;;;7.73;3.00;;;6.90;99.90;;;;;;5033164;28;20205;-71
2021/01/18 17:30:58;;;;;;;6.43;2.63;;;7.00;99.90;;;;;;5033047;28;20212;-73
2021/01/18 17:33:25;;;;;;;6.43;2.90;;;7.00;99.90;;;;;;5033031;28;20224;-73
2021/01/18 17:35:51;;;;;;;5.23;2.60;;;7.00;99.90;;;;;;5032920;28;20205;-74
2021/01/18 17:38:17;;;;;;;5.13;2.80;;;7.00;99.90;;;;;;5032322;28;20232;-73
2021/01/18 17:40:43;;;;;;;5.60;3.37;;;7.00;99.90;;;;;;5032766;28;20205;-73
2021/01/18 17:43:10;;;;;;;5.63;3.07;;;7.00;99.90;;;;;;5032314;28;20237;-73
2021/01/18 17:45:36;;;;;;;3.33;2.40;;;7.00;99.90;;;;;;5032341;28;20777;-73
2021/01/18 17:48:02;;;;;;;7.43;2.73;;;7.00;99.90;;;;;;5032570;28;20220;-73
2021/01/18 17:50:29;;;;;;;6.87;2.57;;;7.00;99.90;;;;;;5033008;28;20205;-73
2021/01/18 17:52:55;;;;;;;9.07;2.67;;;7.00;99.90;;;;;;5032156;28;20649;-72
2021/01/18 17:55:22;;;;;;;5.40;2.47;;;7.00;99.90;;;;;;5033222;28;20227;-72
2021/01/18 17:57:48;;;;;;;4.87;2.20;;;7.00;99.90;;;;;;5032635;28;20236;-76
2021/01/18 18:00:17;;;;;;;8.13;3.67;;;7.00;99.90;;;;;;5032951;28;20275;-73
2021/01/18 18:02:43;;;;;;;4.83;3.17;;;6.90;99.90;;;;;;5032444;28;20235;-73
2021/01/18 18:05:10;;;;;;;8.13;2.87;;;7.00;99.90;;;;;;5032716;28;20200;-73
2021/01/18 18:07:37;;;;;;;7.37;3.13;;;7.00;99.90;;;;;;5032285;28;20219;-72
2021/01/18 18:10:05;;;;;;;6.57;3.47;;;7.10;99.90;;;;;;5032554;28;20231;-72
2021/01/18 18:12:32;;;;;;;6.47;2.87;;;7.20;99.90;;;;;;5032433;28;20205;-74
2021/01/18 18:14:58;;;;;;;3.27;2.10;;;7.20;99.90;;;;;;5032605;28;20215;-74
2021/01/18 18:17:26;;;;;;;5.60;2.50;;;7.20;99.90;;;;;;5032275;28;20702;-74
2021/01/18 18:19:53;;;;;;;4.57;2.87;;;7.10;99.90;;;;;;5032560;28;20611;-76
2021/01/18 18:22:19;;;;;;;5.10;2.40;;;7.10;99.90;;;;;;5031955;28;20209;-74
2021/01/18 18:24:46;;;;;;;4.60;2.77;;;7.10;99.90;;;;;;5032710;28;20208;-73
2021/01/18 18:27:13;;;;;;;6.77;3.30;;;7.20;99.90;;;;;;5032505;28;20281;-72
2021/01/18 18:29:40;;;;;;;7.37;3.53;;;7.10;99.90;;;;;;5032656;28;20205;-75
2021/01/18 18:32:06;;;;;;;7.37;2.80;;;7.10;99.90;;;;;;5032384;28;20622;-73
2021/01/18 18:34:33;;;;;;;8.00;3.23;;;7.10;99.90;;;;;;5032680;28;20225;-73
2021/01/18 18:37:01;;;;;;;4.20;2.90;;;7.10;99.90;;;;;;5032292;28;20233;-74
2021/01/18 18:39:28;;;;;;;5.53;3.00;;;7.10;99.90;;;;;;5032197;28;20655;-74
2021/01/18 18:41:57;;;;;;;7.10;3.07;;;7.00;99.90;;;;;;5032047;28;20679;-72
2021/01/18 18:44:24;;;;;;;3.37;2.50;;;7.00;99.90;;;;;;5031975;28;20258;-75
2021/01/18 18:46:52;;;;;;;6.50;2.63;;;7.00;99.90;;;;;;5032377;28;20213;-73
2021/01/18 18:49:19;;;;;;;6.07;3.50;;;7.00;99.90;;;;;;5032782;28;20209;-71
2021/01/18 18:51:47;;;;;;;5.13;2.80;;;7.00;99.90;;;;;;5032122;28;20209;-73
2021/01/18 18:54:15;;;;;;;7.20;2.53;;;6.90;99.90;;;;;;5031994;28;20236;-74
2021/01/18 18:56:43;;;;;;;3.87;2.70;;;6.90;99.90;;;;;;5032490;28;20229;-72
2021/01/18 18:59:10;;;;;;;6.63;2.60;;;6.80;99.90;;;;;;5035862;28;20572;-74
2021/01/18 19:01:36;;;;;;;4.53;2.47;;;6.80;99.90;;;;;;5037206;28;20213;-75
2021/01/18 19:04:03;;;;;;;6.33;2.77;;;6.90;99.90;;;;;;5035731;28;20236;-76
2021/01/18 19:06:29;;;;;;;3.53;2.27;;;6.80;99.90;;;;;;5035469;28;20209;-71
2021/01/18 19:08:56;;;;;;;5.17;2.40;;;6.80;99.90;;;;;;5036307;28;20209;-71
2021/01/18 19:11:22;;;;;;;3.87;2.50;;;6.80;99.90;;;;;;5036160;28;20399;-72
2021/01/18 19:13:49;;;;;;;3.70;2.20;;;6.80;99.90;;;;;;5035359;28;20707;-71
2021/01/18 19:16:16;;;;;;;4.37;2.50;;;6.80;99.90;;;;;;5035641;28;20205;-71
2021/01/18 19:18:42;;;;;;;7.07;2.60;;;6.70;99.90;;;;;;5036086;28;20204;-71
2021/01/18 19:21:08;;;;;;;5.13;2.70;;;6.60;99.90;;;;;;5035353;28;20663;-71
2021/01/18 19:23:35;;;;;;;7.50;3.07;;;6.60;99.90;;;;;;5035417;28;20229;-72
2021/01/18 19:26:02;;;;;;;5.00;2.70;;;6.60;99.90;;;;;;5035561;28;20209;-70
2021/01/18 19:28:28;;;;;;;7.73;2.40;;;6.60;99.90;;;;;;5035317;28;20244;-69
2021/01/18 19:30:55;;;;;;;6.57;2.73;;;6.60;99.90;;;;;;5035284;28;20209;-70
2021/01/18 19:33:24;;;;;;;4.50;2.93;;;6.60;99.90;;;;;;5035893;28;20228;-70
2021/01/18 19:35:50;;;;;;;5.90;2.40;;;6.60;99.90;;;;;;5044223;28;20196;-70
2021/01/18 19:38:17;;;;;;;6.83;2.90;;;6.50;99.90;;;;;;5052340;28;20235;-70
2021/01/18 19:40:43;;;;;;;5.87;2.37;;;6.60;99.90;;;;;;5045967;28;20227;-71
2021/01/18 19:43:10;;;;;;;5.93;2.80;;;6.60;99.90;;;;;;5046855;28;20228;-70
2021/01/18 19:45:37;;;;;;;7.43;2.63;;;6.50;99.90;;;;;;5047373;28;20728;-70
2021/01/18 19:48:03;;;;;;;10.80;2.50;;;6.60;99.90;;;;;;5051242;28;20218;-70
2021/01/18 19:50:30;;;;;;;7.53;2.83;;;6.70;99.90;;;;;;5049186;28;20215;-71
2021/01/18 19:52:57;;;;;;;4.03;2.00;;;6.70;99.90;;;;;;5050173;28;20729;-72
2021/01/18 19:55:23;;;;;;;5.00;2.13;;;6.60;99.90;;;;;;5050689;28;20219;-71
2021/01/18 19:57:49;;;;;;;7.77;1.87;;;6.60;99.90;;;;;;5048745;28;20232;-71
2021/01/18 20:00:16;;;;;;;4.77;2.17;;;6.50;99.90;;;;;;5049288;28;20201;-71
2021/01/18 20:02:42;;;;;;;3.73;1.93;;;6.50;99.90;;;;;;5045708;28;20220;-71
2021/01/18 20:05:10;;;;;;;5.53;2.20;;;6.50;99.90;;;;;;5048875;28;20601;-71
2021/01/18 20:07:38;;;;;;;3.80;1.70;;;6.50;99.90;;;;;;5044590;28;20204;-72
2021/01/18 20:10:06;;;;;;;5.47;1.90;;;6.40;99.90;;;;;;5046766;28;20724;-72
2021/01/18 20:12:36;;;;;;;4.73;1.67;;;6.50;99.90;;;;;;5053869;28;20215;-72
2021/01/18 20:15:03;;;;;;;2.53;1.57;;;6.50;99.90;;;;;;5036791;28;20213;-73
2021/01/18 20:17:29;;;;;;;7.53;2.13;;;6.50;99.90;;;;;;5040288;28;20266;-72
2021/01/18 20:19:55;;;;;;;2.73;1.83;;;6.50;99.90;;;;;;5048183;28;20222;-71
2021/01/18 20:22:21;;;;;;;5.17;1.93;;;6.50;99.90;;;;;;5052593;28;20262;-72
2021/01/18 20:24:48;;;;;;;4.83;2.17;;;6.50;99.90;;;;;;5052977;28;20737;-72
2021/01/18 20:27:15;;;;;;;6.90;1.80;;;6.60;99.90;;;;;;5050790;28;20235;-71
2021/01/18 20:29:41;;;;;;;5.67;1.87;;;6.60;99.90;;;;;;5053703;28;20204;-71
2021/01/18 20:32:07;;;;;;;4.77;1.83;;;6.60;99.90;;;;;;5052484;28;20619;-72
2021/01/18 20:34:34;;;;;;;6.97;1.97;;;6.70;99.90;;;;;;5053492;28;20220;-72
2021/01/18 20:37:00;;;;;;;5.07;1.70;;;6.70;99.90;;;;;;5053348;28;20231;-72
2021/01/18 20:39:26;;;;;;;6.77;1.83;;;6.70;99.90;;;;;;5052744;28;20536;-71
2021/01/18 20:41:53;;;;;;;7.43;2.20;;;6.70;99.90;;;;;;5052678;28;20204;-71
2021/01/18 20:44:19;;;;;;;5.87;1.40;;;6.70;99.90;;;;;;5067752;22;20239;-74
2021/01/18 20:46:46;;;;;;;7.23;1.70;;;6.70;99.90;;;;;;5052422;28;20200;-72
2021/01/18 20:49:16;;;;;;;3.97;1.90;;;6.70;99.90;;;;;;5052695;28;20228;-72
2021/01/18 20:51:44;;;;;;;4.60;1.67;;;6.70;99.90;;;;;;5051239;28;20246;-72
2021/01/18 20:54:10;;;;;;;10.13;2.20;;;6.60;99.90;;;;;;5048032;28;20220;-73
2021/01/18 20:56:36;;;;;;;8.70;1.53;;;6.60;99.90;;;;;;5051121;28;20204;-73
2021/01/18 20:59:03;;;;;;;6.40;2.00;;;6.60;99.90;;;;;;5050552;28;20208;-73
2021/01/18 21:01:30;;;;;;;7.80;1.70;;;6.60;99.90;;;;;;5051847;28;20222;-73
2021/01/18 21:03:56;;;;;;;2.10;1.50;;;6.60;99.90;;;;;;5052514;28;20220;-73
2021/01/18 21:06:23;;;;;;;5.77;1.53;;;6.60;99.90;;;;;;5052819;28;20204;-73
2021/01/18 21:08:50;;;;;;;3.27;1.30;;;6.70;99.90;;;;;;5052799;28;20208;-73
2021/01/18 21:11:17;;;;;;;5.20;1.93;;;6.70;99.90;;;;;;5052636;28;20200;-72
2021/01/18 21:13:44;;;;;;;5.23;1.70;;;6.70;99.90;;;;;;5053499;28;20318;-73
2021/01/18 21:16:11;;;;;;;8.53;1.60;;;6.70;99.90;;;;;;5052220;28;20204;-72
2021/01/18 21:18:38;;;;;;;6.07;1.53;;;6.70;99.90;;;;;;5052764;28;20240;-72
2021/01/18 21:21:05;;;;;;;7.87;1.80;;;6.70;99.90;;;;;;5051712;28;20200;-73
2021/01/18 21:23:31;;;;;;;3.97;1.80;;;6.60;99.90;;;;;;5052215;28;20220;-73
2021/01/18 21:25:58;;;;;;;4.17;1.60;;;6.60;99.90;;;;;;5052821;28;20211;-73
2021/01/18 21:28:24;;;;;;;5.83;1.33;;;6.70;99.90;;;;;;5052300;28;20548;-73
2021/01/18 21:30:51;;;;;;;3.40;1.43;;;6.70;99.90;;;;;;5052599;28;20207;-72
2021/01/18 21:33:18;;;;;;;9.13;1.70;;;6.70;99.90;;;;;;5052311;28;20232;-72
2021/01/18 21:35:45;;;;;;;2.83;1.10;;;6.60;99.90;;;;;;5052871;28;20200;-72
2021/01/18 21:38:12;;;;;;;3.73;1.30;;;6.50;99.90;;;;;;5051590;28;20232;-72
2021/01/18 21:40:38;;;;;;;2.27;1.30;;;6.50;99.90;;;;;;5044812;28;20210;-73
2021/01/18 21:43:04;;;;;;;3.93;1.13;;;6.50;99.90;;;;;;5050778;28;20645;-72
2021/01/18 21:45:30;;;;;;;4.47;1.20;;;6.40;99.90;;;;;;5050506;28;20204;-72